Terminal Aerodrome Forecast
Issued by NWS

Home | Current Version | Previous Version | Text Only | Print | Product List | Glossary On
Versions: 1 2 3 4 5 6 7 8 9 10 11 12 13
000
FTUS45 KRIW 312300
TAFJAC
TAF
KJAC 312327Z 0100/0124 VRB06KT P6SM VCTS SCT090CB BKN120
     FM010230 VRB06KT P6SM VCSH SCT080 BKN200
     FM010500 02006KT P6SM SCT120
     FM012100 02009G15KT P6SM VCTS SCT090CB
      AMD LTD TO CLD VIS AND WIND=

USA.gov is the U.S. government's official web portal to all federal, state and local government web resources and services.